Terminal Aerodrome Forecast
Issued by NWS Buffalo, NY

Home | Current Version | Previous Version | Text Only | Print | Product List | Glossary On
Versions: 1 2 3 4 5 6 7 8 9 10 11 12 13 14 15 16 17 18 19 20 21 22 23 24 25 26
000
FTUS41 KBUF 080212 AAA
TAFROC
TAF AMD
KROC 080212Z 0802/0824 23009KT P6SM VCSH SCT035 BKN080
     FM080300 27009KT 6SM -SHRA BR BKN025 OVC040
     FM080500 29010KT 5SM -DZ OVC020
     FM081000 34008KT P6SM BKN250
     FM081400 02008KT P6SM FEW035 SCT250=

USA.gov is the U.S. government's official web portal to all federal, state and local government web resources and services.